PWSweather.com
Personal Weather Stations
Station Observations
WD4JKH
Forsyth, GA 31029

Forsyth, GA 31029

Lat: 33.033225, Lon: -83.927995

Elevation: 709

Station Type: Davis Vantage VUE

High Low Average
Temperature 52.6°F11.4°C 48.6°F9.2°C 50.6°F10.3°C
Dew Point 52.1°F11.2°C 45.9°F7.7°C 49.6°F9.8°C
Winds 9.4 mph 15.1 kmh Calm Calm 4.0 mph ENE6.4 kmh ENE
Wind Gusts 19.0 mph30.6 kmh 3.0 mph4.8 kmh 11.0 mph17.7 kmh
Humidity 99% 80% 97%
Pressure 30.14 in1020.7 mb 29.90 in1012.5 mb -
Precipitation 1.26 in32.0 mm - -
Hour Temp Dew Point Humidity Winds Wind Gusts Pressure Precip Precip Rate Daily Precip Total
12:00 AM 51.8°F11.0°C 45.9°F7.7°C 80% 4.3 mph NE6.9 kmh NE 10.0 mph16.1 kmh 30.14 in1020.7 mb 0.00 in0.0 mm 0.00 in0.0 mm 0.00 in0.0 mm
12:05 AM 51.8°F11.0°C 45.9°F7.7°C 80% 5.2 mph ENE8.4 kmh ENE 10.0 mph16.1 kmh 30.13 in1020.3 mb 0.00 in0.0 mm 0.00 in0.0 mm 0.00 in0.0 mm
12:09 AM 51.8°F11.0°C 45.9°F7.7°C 80% 5.0 mph ENE8.0 kmh ENE 12.0 mph19.3 kmh 30.13 in1020.3 mb 0.00 in0.0 mm 0.00 in0.0 mm 0.00 in0.0 mm
12:14 AM 51.9°F11.1°C 46.0°F7.8°C 80% 4.1 mph NE6.6 kmh NE 12.0 mph19.3 kmh 30.13 in1020.3 mb 0.00 in0.0 mm 0.00 in0.0 mm 0.00 in0.0 mm
12:19 AM 52.0°F11.1°C 46.1°F7.8°C 80% 3.9 mph NE6.3 kmh NE 12.0 mph19.3 kmh 30.14 in1020.7 mb 0.00 in0.0 mm 0.00 in0.0 mm 0.00 in0.0 mm
12:24 AM 51.9°F11.1°C 46.0°F7.8°C 80% 3.9 mph ENE6.3 kmh ENE 12.0 mph19.3 kmh 30.14 in1020.7 mb 0.00 in0.0 mm 0.00 in0.0 mm 0.00 in0.0 mm
12:29 AM 51.9°F11.1°C 46.3°F7.9°C 81% 4.9 mph NE7.9 kmh NE 11.0 mph17.7 kmh 30.14 in1020.7 mb 0.00 in0.0 mm 0.00 in0.0 mm 0.00 in0.0 mm
12:34 AM 51.9°F11.1°C 46.3°F7.9°C 81% 1.9 mph ENE3.1 kmh ENE 11.0 mph17.7 kmh 30.13 in1020.3 mb 0.00 in0.0 mm 0.00 in0.0 mm 0.00 in0.0 mm
12:39 AM 51.9°F11.1°C 46.3°F7.9°C 81% 2.8 mph ENE4.5 kmh ENE 11.0 mph17.7 kmh 30.14 in1020.7 mb 0.00 in0.0 mm 0.00 in0.0 mm 0.00 in0.0 mm
12:44 AM 51.8°F11.0°C 46.2°F7.9°C 81% 3.6 mph ENE5.8 kmh ENE 11.0 mph17.7 kmh 30.14 in1020.7 mb 0.00 in0.0 mm 0.00 in0.0 mm 0.00 in0.0 mm
12:49 AM 51.8°F11.0°C 46.5°F8.1°C 82% 2.3 mph E3.7 kmh E 11.0 mph17.7 kmh 30.14 in1020.7 mb 0.00 in0.0 mm 0.00 in0.0 mm 0.00 in0.0 mm
12:54 AM 51.7°F10.9°C 46.7°F8.2°C 83% 3.1 mph ENE5.0 kmh ENE 11.0 mph17.7 kmh 30.14 in1020.7 mb 0.00 in0.0 mm 0.00 in0.0 mm 0.00 in0.0 mm
12:59 AM 51.7°F10.9°C 47.0°F8.3°C 84% 5.8 mph ENE9.3 kmh ENE 15.0 mph24.1 kmh 30.13 in1020.3 mb 0.00 in0.0 mm 0.00 in0.0 mm 0.00 in0.0 mm
01:04 AM 51.5°F10.8°C 47.1°F8.4°C 85% 4.4 mph ENE7.1 kmh ENE 15.0 mph24.1 kmh 30.13 in1020.3 mb 0.00 in0.0 mm 0.00 in0.0 mm 0.00 in0.0 mm
01:09 AM 51.2°F10.7°C 47.1°F8.4°C 86% 5.3 mph ENE8.5 kmh ENE 15.0 mph24.1 kmh 30.13 in1020.3 mb 0.00 in0.0 mm 0.00 in0.0 mm 0.00 in0.0 mm
01:14 AM 50.9°F10.5°C 47.1°F8.4°C 87% 3.3 mph NE5.3 kmh NE 15.0 mph24.1 kmh 30.13 in1020.3 mb 0.00 in0.0 mm 0.00 in0.0 mm 0.00 in0.0 mm
01:19 AM 50.5°F10.3°C 47.1°F8.4°C 88% 3.3 mph ENE5.3 kmh ENE 14.0 mph22.5 kmh 30.13 in1020.3 mb 0.01 in0.3 mm 0.12 in3.0 mm 0.01 in0.3 mm
01:24 AM 50.2°F10.1°C 47.1°F8.4°C 89% 4.9 mph ENE7.9 kmh ENE 14.0 mph22.5 kmh 30.13 in1020.3 mb 0.02 in0.5 mm 0.12 in3.0 mm 0.02 in0.5 mm
01:29 AM 49.9°F9.9°C 47.0°F8.3°C 90% 2.2 mph NE3.5 kmh NE 9.0 mph14.5 kmh 30.13 in1020.3 mb 0.04 in1.0 mm 0.24 in6.1 mm 0.04 in1.0 mm
01:34 AM 49.6°F9.8°C 47.1°F8.4°C 91% 1.0 mph E1.6 kmh E 7.0 mph11.3 kmh 30.13 in1020.3 mb 0.05 in1.3 mm 0.12 in3.0 mm 0.05 in1.3 mm
01:39 AM 49.4°F9.7°C 47.1°F8.4°C 92% 1.6 mph ENE2.6 kmh ENE 7.0 mph11.3 kmh 30.14 in1020.7 mb 0.06 in1.5 mm 0.12 in3.0 mm 0.06 in1.5 mm
01:44 AM 49.2°F9.6°C 46.9°F8.3°C 92% 2.2 mph NE3.5 kmh NE 5.0 mph8.0 kmh 30.14 in1020.7 mb 0.06 in1.5 mm 0.00 in0.0 mm 0.06 in1.5 mm
01:49 AM 49.1°F9.5°C 47.1°F8.4°C 93% 1.3 mph ENE2.1 kmh ENE 4.0 mph6.4 kmh 30.14 in1020.7 mb 0.07 in1.8 mm 0.12 in3.0 mm 0.07 in1.8 mm
01:54 AM 49.0°F9.4°C 47.0°F8.3°C 93% 2.1 mph ENE3.4 kmh ENE 4.0 mph6.4 kmh 30.14 in1020.7 mb 0.08 in2.0 mm 0.12 in3.0 mm 0.08 in2.0 mm
01:59 AM 48.9°F9.4°C 47.2°F8.4°C 94% 2.3 mph NE3.7 kmh NE 6.0 mph9.7 kmh 30.14 in1020.7 mb 0.09 in2.3 mm 0.12 in3.0 mm 0.09 in2.3 mm
02:04 AM 48.8°F9.3°C 47.2°F8.4°C 94% 2.2 mph NE3.5 kmh NE 6.0 mph9.7 kmh 30.14 in1020.7 mb 0.09 in2.3 mm 0.00 in0.0 mm 0.09 in2.3 mm
02:09 AM 48.8°F9.3°C 47.1°F8.4°C 94% 2.0 mph NE3.2 kmh NE 7.0 mph11.3 kmh 30.14 in1020.7 mb 0.10 in2.5 mm 0.12 in3.0 mm 0.10 in2.5 mm
02:14 AM 48.8°F9.3°C 47.1°F8.4°C 94% 1.9 mph NE3.1 kmh NE 7.0 mph11.3 kmh 30.14 in1020.7 mb 0.11 in2.8 mm 0.12 in3.0 mm 0.11 in2.8 mm
02:19 AM 48.7°F9.3°C 47.3°F8.5°C 95% 3.1 mph NE5.0 kmh NE 7.0 mph11.3 kmh 30.13 in1020.3 mb 0.11 in2.8 mm 0.00 in0.0 mm 0.12 in3.0 mm
02:24 AM 48.6°F9.2°C 47.2°F8.4°C 95% 4.3 mph NE6.9 kmh NE 7.0 mph11.3 kmh 30.13 in1020.3 mb 0.11 in2.8 mm 0.00 in0.0 mm 0.13 in3.3 mm
02:29 AM 48.6°F9.2°C 47.2°F8.4°C 95% 3.8 mph NE6.1 kmh NE 11.0 mph17.7 kmh 30.13 in1020.3 mb 0.10 in2.5 mm 0.00 in0.0 mm 0.14 in3.6 mm
02:34 AM 48.6°F9.2°C 47.2°F8.4°C 95% 5.7 mph NE9.2 kmh NE 11.0 mph17.7 kmh 30.12 in1020.0 mb 0.10 in2.5 mm 0.00 in0.0 mm 0.15 in3.8 mm
02:39 AM 48.7°F9.3°C 47.3°F8.5°C 95% 4.4 mph NE7.1 kmh NE 11.0 mph17.7 kmh 30.12 in1020.0 mb 0.09 in2.3 mm 0.00 in0.0 mm 0.16 in4.1 mm
02:44 AM 48.7°F9.3°C 47.3°F8.5°C 95% 3.2 mph ENE5.1 kmh ENE 11.0 mph17.7 kmh 30.12 in1020.0 mb 0.10 in2.5 mm 0.12 in3.0 mm 0.16 in4.1 mm
02:49 AM 48.7°F9.3°C 47.3°F8.5°C 95% 3.2 mph NE5.1 kmh NE 11.0 mph17.7 kmh 30.12 in1020.0 mb 0.10 in2.5 mm 0.00 in0.0 mm 0.17 in4.3 mm
02:54 AM 48.7°F9.3°C 47.6°F8.7°C 96% 2.5 mph NE4.0 kmh NE 11.0 mph17.7 kmh 30.12 in1020.0 mb 0.10 in2.5 mm 0.00 in0.0 mm 0.18 in4.6 mm
02:59 AM 48.7°F9.3°C 47.6°F8.7°C 96% 4.1 mph NE6.6 kmh NE 11.0 mph17.7 kmh 30.12 in1020.0 mb 0.10 in2.5 mm 0.00 in0.0 mm 0.19 in4.8 mm
03:04 AM 48.8°F9.3°C 47.7°F8.7°C 96% 2.6 mph NE4.2 kmh NE 11.0 mph17.7 kmh 30.12 in1020.0 mb 0.11 in2.8 mm 0.01 in0.3 mm 0.20 in5.1 mm
03:09 AM 48.8°F9.3°C 47.7°F8.7°C 96% 4.3 mph NE6.9 kmh NE 11.0 mph17.7 kmh 30.12 in1020.0 mb 0.10 in2.5 mm 0.00 in0.0 mm 0.21 in5.3 mm
03:14 AM 48.8°F9.3°C 47.7°F8.7°C 96% 3.6 mph NE5.8 kmh NE 11.0 mph17.7 kmh 30.12 in1020.0 mb 0.10 in2.5 mm 0.00 in0.0 mm 0.21 in5.3 mm
03:19 AM 48.8°F9.3°C 47.7°F8.7°C 96% 3.3 mph NE5.3 kmh NE 10.0 mph16.1 kmh 30.13 in1020.3 mb 0.10 in2.5 mm 0.00 in0.0 mm 0.22 in5.6 mm
03:24 AM 48.8°F9.3°C 47.7°F8.7°C 96% 3.8 mph NE6.1 kmh NE 10.0 mph16.1 kmh 30.13 in1020.3 mb 0.10 in2.5 mm 0.00 in0.0 mm 0.23 in5.8 mm
03:29 AM 48.8°F9.3°C 47.7°F8.7°C 96% 3.7 mph NE6.0 kmh NE 10.0 mph16.1 kmh 30.13 in1020.3 mb 0.10 in2.5 mm 0.00 in0.0 mm 0.24 in6.1 mm
03:34 AM 48.7°F9.3°C 47.6°F8.7°C 96% 2.6 mph NE4.2 kmh NE 9.0 mph14.5 kmh 30.13 in1020.3 mb 0.10 in2.5 mm 0.00 in0.0 mm 0.25 in6.4 mm
03:39 AM 48.7°F9.3°C 47.6°F8.7°C 96% 2.7 mph NE4.3 kmh NE 9.0 mph14.5 kmh 30.12 in1020.0 mb 0.10 in2.5 mm 0.00 in0.0 mm 0.26 in6.6 mm
03:44 AM 48.7°F9.3°C 47.9°F8.8°C 97% 3.8 mph NE6.1 kmh NE 9.0 mph14.5 kmh 30.12 in1020.0 mb 0.11 in2.8 mm 0.12 in3.0 mm 0.27 in6.9 mm
03:49 AM 48.7°F9.3°C 47.9°F8.8°C 97% 3.2 mph NE5.1 kmh NE 8.0 mph12.9 kmh 30.12 in1020.0 mb 0.10 in2.5 mm 0.00 in0.0 mm 0.27 in6.9 mm
03:54 AM 48.7°F9.3°C 47.9°F8.8°C 97% 2.7 mph NE4.3 kmh NE 9.0 mph14.5 kmh 30.12 in1020.0 mb 0.10 in2.5 mm 0.00 in0.0 mm 0.28 in7.1 mm
03:59 AM 48.7°F9.3°C 47.9°F8.8°C 97% 4.7 mph NE7.6 kmh NE 9.0 mph14.5 kmh 30.11 in1019.6 mb 0.09 in2.3 mm 0.00 in0.0 mm 0.28 in7.1 mm
04:04 AM 48.7°F9.3°C 47.9°F8.8°C 97% 4.0 mph NE6.4 kmh NE 9.0 mph14.5 kmh 30.11 in1019.6 mb 0.08 in2.0 mm 0.00 in0.0 mm 0.28 in7.1 mm
04:08 AM 48.7°F9.3°C 47.9°F8.8°C 97% 3.6 mph NE5.8 kmh NE 9.0 mph14.5 kmh 30.11 in1019.6 mb 0.08 in2.0 mm 0.00 in0.0 mm 0.28 in7.1 mm
04:13 AM 48.6°F9.2°C 47.8°F8.8°C 97% 4.0 mph NE6.4 kmh NE 10.0 mph16.1 kmh 30.10 in1019.3 mb 0.07 in1.8 mm 0.00 in0.0 mm 0.28 in7.1 mm
04:18 AM 48.7°F9.3°C 47.9°F8.8°C 97% 3.5 mph NE5.6 kmh NE 10.0 mph16.1 kmh 30.10 in1019.3 mb 0.06 in1.5 mm 0.00 in0.0 mm 0.28 in7.1 mm
04:23 AM 48.7°F9.3°C 47.9°F8.8°C 97% 3.9 mph NE6.3 kmh NE 10.0 mph16.1 kmh 30.10 in1019.3 mb 0.05 in1.3 mm 0.00 in0.0 mm 0.28 in7.1 mm
04:28 AM 48.7°F9.3°C 47.9°F8.8°C 97% 4.5 mph NE7.2 kmh NE 10.0 mph16.1 kmh 30.10 in1019.3 mb 0.04 in1.0 mm 0.00 in0.0 mm 0.28 in7.1 mm
04:33 AM 48.7°F9.3°C 47.9°F8.8°C 97% 3.6 mph NE5.8 kmh NE 10.0 mph16.1 kmh 30.10 in1019.3 mb 0.04 in1.0 mm 0.00 in0.0 mm 0.29 in7.4 mm
04:38 AM 48.8°F9.3°C 48.0°F8.9°C 97% 4.4 mph NE7.1 kmh NE 9.0 mph14.5 kmh 30.10 in1019.3 mb 0.03 in0.8 mm 0.00 in0.0 mm 0.29 in7.4 mm
04:43 AM 48.9°F9.4°C 48.1°F8.9°C 97% 4.2 mph NE6.8 kmh NE 12.0 mph19.3 kmh 30.10 in1019.3 mb 0.02 in0.5 mm 0.00 in0.0 mm 0.29 in7.4 mm
04:48 AM 48.9°F9.4°C 48.1°F8.9°C 97% 3.3 mph NE5.3 kmh NE 12.0 mph19.3 kmh 30.09 in1019.0 mb 0.03 in0.8 mm 0.12 in3.0 mm 0.30 in7.6 mm
04:53 AM 49.0°F9.4°C 48.2°F9.0°C 97% 3.6 mph ENE5.8 kmh ENE 12.0 mph19.3 kmh 30.08 in1018.6 mb 0.02 in0.5 mm 0.00 in0.0 mm 0.30 in7.6 mm
04:58 AM 49.2°F9.6°C 48.4°F9.1°C 97% 4.8 mph ENE7.7 kmh ENE 12.0 mph19.3 kmh 30.08 in1018.6 mb 0.02 in0.5 mm 0.00 in0.0 mm 0.30 in7.6 mm
05:03 AM 49.4°F9.7°C 48.6°F9.2°C 97% 4.8 mph ENE7.7 kmh ENE 11.0 mph17.7 kmh 30.07 in1018.3 mb 0.03 in0.8 mm 0.01 in0.3 mm 0.31 in7.9 mm
05:08 AM 49.5°F9.7°C 48.7°F9.3°C 97% 2.9 mph ENE4.7 kmh ENE 16.0 mph25.7 kmh 30.07 in1018.3 mb 0.03 in0.8 mm 0.00 in0.0 mm 0.31 in7.9 mm
05:13 AM 49.6°F9.8°C 49.0°F9.4°C 98% 6.6 mph ENE10.6 kmh ENE 16.0 mph25.7 kmh 30.06 in1017.9 mb 0.04 in1.0 mm 0.12 in3.0 mm 0.32 in8.1 mm
05:18 AM 49.6°F9.8°C 49.1°F9.5°C 98% 4.4 mph ENE7.1 kmh ENE 16.0 mph25.7 kmh 30.06 in1017.9 mb 0.04 in1.0 mm 0.00 in0.0 mm 0.32 in8.1 mm
05:23 AM 49.7°F9.8°C 49.2°F9.6°C 98% 5.6 mph NE9.0 kmh NE 14.0 mph22.5 kmh 30.06 in1017.9 mb 0.04 in1.0 mm 0.00 in0.0 mm 0.32 in8.1 mm
05:28 AM 49.7°F9.8°C 49.1°F9.5°C 98% 4.4 mph NE7.1 kmh NE 14.0 mph22.5 kmh 30.06 in1017.9 mb 0.04 in1.0 mm 0.00 in0.0 mm 0.32 in8.1 mm
05:33 AM 49.8°F9.9°C 49.2°F9.6°C 98% 8.4 mph NE13.5 kmh NE 14.0 mph22.5 kmh 30.07 in1018.3 mb 0.04 in1.0 mm 0.00 in0.0 mm 0.33 in8.4 mm
05:38 AM 49.9°F9.9°C 49.3°F9.6°C 98% 3.0 mph NE4.8 kmh NE 14.0 mph22.5 kmh 30.07 in1018.3 mb 0.04 in1.0 mm 0.00 in0.0 mm 0.33 in8.4 mm
05:43 AM 49.9°F9.9°C 49.3°F9.6°C 98% 3.3 mph NE5.3 kmh NE 13.0 mph20.9 kmh 30.07 in1018.3 mb 0.04 in1.0 mm 0.00 in0.0 mm 0.33 in8.4 mm
05:48 AM 50.0°F10.0°C 49.4°F9.7°C 98% 4.6 mph ENE7.4 kmh ENE 15.0 mph24.1 kmh 30.07 in1018.3 mb 0.03 in0.8 mm 0.00 in0.0 mm 0.33 in8.4 mm
05:53 AM 50.0°F10.0°C 49.4°F9.7°C 98% 6.1 mph NE9.8 kmh NE 15.0 mph24.1 kmh 30.06 in1017.9 mb 0.03 in0.8 mm 0.00 in0.0 mm 0.33 in8.4 mm
05:58 AM 50.0°F10.0°C 49.4°F9.7°C 98% 2.0 mph ENE3.2 kmh ENE 15.0 mph24.1 kmh 30.07 in1018.3 mb 0.04 in1.0 mm 0.12 in3.0 mm 0.34 in8.6 mm
06:03 AM 50.0°F10.0°C 49.4°F9.7°C 98% 3.6 mph ENE5.8 kmh ENE 15.0 mph24.1 kmh 30.07 in1018.3 mb 0.03 in0.8 mm 0.00 in0.0 mm 0.34 in8.6 mm
06:08 AM 50.0°F10.0°C 49.4°F9.7°C 98% 4.4 mph ENE7.1 kmh ENE 14.0 mph22.5 kmh 30.06 in1017.9 mb 0.05 in1.3 mm 0.24 in6.1 mm 0.36 in9.1 mm
06:13 AM 50.0°F10.0°C 49.4°F9.7°C 98% 7.3 mph ENE11.7 kmh ENE 15.0 mph24.1 kmh 30.05 in1017.6 mb 0.06 in1.5 mm 0.12 in3.0 mm 0.38 in9.7 mm
06:18 AM 50.1°F10.1°C 49.5°F9.7°C 98% 8.3 mph ENE13.4 kmh ENE 17.0 mph27.4 kmh 30.05 in1017.6 mb 0.09 in2.3 mm 0.36 in9.1 mm 0.41 in10.4 mm
06:23 AM 50.1°F10.1°C 49.5°F9.7°C 98% 7.8 mph NE12.6 kmh NE 17.0 mph27.4 kmh 30.05 in1017.6 mb 0.10 in2.5 mm 0.12 in3.0 mm 0.42 in10.7 mm
06:28 AM 50.1°F10.1°C 49.5°F9.7°C 98% 8.4 mph NE13.5 kmh NE 17.0 mph27.4 kmh 30.05 in1017.6 mb 0.11 in2.8 mm 0.12 in3.0 mm 0.43 in10.9 mm
06:33 AM 50.1°F10.1°C 49.6°F9.8°C 98% 5.8 mph ENE9.3 kmh ENE 19.0 mph30.6 kmh 30.04 in1017.3 mb 0.10 in2.5 mm 0.00 in0.0 mm 0.43 in10.9 mm
06:38 AM 50.0°F10.0°C 49.4°F9.7°C 98% 4.7 mph ENE7.6 kmh ENE 19.0 mph30.6 kmh 30.04 in1017.3 mb 0.11 in2.8 mm 0.12 in3.0 mm 0.44 in11.2 mm
06:43 AM 50.0°F10.0°C 49.5°F9.7°C 98% 4.7 mph ENE7.6 kmh ENE 19.0 mph30.6 kmh 30.04 in1017.3 mb 0.11 in2.8 mm 0.00 in0.0 mm 0.44 in11.2 mm
06:48 AM 50.0°F10.0°C 49.4°F9.7°C 98% 4.5 mph NE7.2 kmh NE 13.0 mph20.9 kmh 30.04 in1017.3 mb 0.11 in2.8 mm 0.00 in0.0 mm 0.44 in11.2 mm
06:53 AM 50.0°F10.0°C 49.4°F9.7°C 98% 8.2 mph NE13.2 kmh NE 13.0 mph20.9 kmh 30.04 in1017.3 mb 0.11 in2.8 mm 0.00 in0.0 mm 0.44 in11.2 mm
06:58 AM 50.0°F10.0°C 49.4°F9.7°C 98% 3.5 mph NE5.6 kmh NE 13.0 mph20.9 kmh 30.05 in1017.6 mb 0.10 in2.5 mm 0.00 in0.0 mm 0.44 in11.2 mm
07:03 AM 50.0°F10.0°C 49.4°F9.7°C 98% 3.3 mph ENE5.3 kmh ENE 13.0 mph20.9 kmh 30.05 in1017.6 mb 0.10 in2.5 mm 0.00 in0.0 mm 0.44 in11.2 mm
07:08 AM 50.0°F10.0°C 49.4°F9.7°C 98% 5.7 mph NE9.2 kmh NE 13.0 mph20.9 kmh 30.06 in1017.9 mb 0.08 in2.0 mm 0.00 in0.0 mm 0.44 in11.2 mm
07:13 AM 50.0°F10.0°C 49.4°F9.7°C 98% 3.7 mph NE6.0 kmh NE 12.0 mph19.3 kmh 30.06 in1017.9 mb 0.06 in1.5 mm 0.00 in0.0 mm 0.44 in11.2 mm
07:18 AM 50.0°F10.0°C 49.4°F9.7°C 98% 3.8 mph NE6.1 kmh NE 12.0 mph19.3 kmh 30.06 in1017.9 mb 0.03 in0.8 mm 0.00 in0.0 mm 0.44 in11.2 mm
07:23 AM 50.0°F10.0°C 49.4°F9.7°C 98% 4.9 mph NE7.9 kmh NE 12.0 mph19.3 kmh 30.06 in1017.9 mb 0.02 in0.5 mm 0.00 in0.0 mm 0.44 in11.2 mm
07:28 AM 50.0°F10.0°C 49.4°F9.7°C 98% 5.5 mph ENE8.9 kmh ENE 12.0 mph19.3 kmh 30.06 in1017.9 mb 0.01 in0.3 mm 0.00 in0.0 mm 0.44 in11.2 mm
07:33 AM 50.0°F10.0°C 49.4°F9.7°C 98% 3.0 mph NE4.8 kmh NE 12.0 mph19.3 kmh 30.06 in1017.9 mb 0.01 in0.3 mm 0.00 in0.0 mm 0.44 in11.2 mm
07:38 AM 49.9°F9.9°C 49.3°F9.6°C 98% 5.3 mph NE8.5 kmh NE 11.0 mph17.7 kmh 30.05 in1017.6 mb 0.00 in0.0 mm 0.00 in0.0 mm 0.44 in11.2 mm
07:43 AM 49.9°F9.9°C 49.3°F9.6°C 98% 4.5 mph NE7.2 kmh NE 14.0 mph22.5 kmh 30.05 in1017.6 mb 0.00 in0.0 mm 0.00 in0.0 mm 0.44 in11.2 mm
07:48 AM 49.9°F9.9°C 49.4°F9.7°C 98% 5.2 mph NE8.4 kmh NE 14.0 mph22.5 kmh 30.05 in1017.6 mb 0.00 in0.0 mm 0.00 in0.0 mm 0.44 in11.2 mm
07:53 AM 49.9°F9.9°C 49.4°F9.7°C 98% 6.2 mph ENE10.0 kmh ENE 14.0 mph22.5 kmh 30.05 in1017.6 mb 0.00 in0.0 mm 0.00 in0.0 mm 0.44 in11.2 mm
07:58 AM 49.9°F9.9°C 49.3°F9.6°C 98% 4.0 mph NE6.4 kmh NE 12.0 mph19.3 kmh 30.05 in1017.6 mb 0.00 in0.0 mm 0.00 in0.0 mm 0.44 in11.2 mm
08:03 AM 49.9°F9.9°C 49.3°F9.6°C 98% 2.9 mph NE4.7 kmh NE 12.0 mph19.3 kmh 30.05 in1017.6 mb 0.00 in0.0 mm 0.00 in0.0 mm 0.44 in11.2 mm
08:07 AM 49.9°F9.9°C 49.4°F9.7°C 98% 4.8 mph NE7.7 kmh NE 12.0 mph19.3 kmh 30.05 in1017.6 mb 0.00 in0.0 mm 0.00 in0.0 mm 0.44 in11.2 mm
08:12 AM 49.9°F9.9°C 49.4°F9.7°C 98% 2.8 mph ENE4.5 kmh ENE 12.0 mph19.3 kmh 30.05 in1017.6 mb 0.00 in0.0 mm 0.00 in0.0 mm 0.44 in11.2 mm
08:17 AM 49.9°F9.9°C 49.3°F9.6°C 98% 5.5 mph ENE8.9 kmh ENE 12.0 mph19.3 kmh 30.04 in1017.3 mb 0.00 in0.0 mm 0.00 in0.0 mm 0.44 in11.2 mm
08:22 AM 49.8°F9.9°C 49.2°F9.6°C 98% 5.9 mph ENE9.5 kmh ENE 12.0 mph19.3 kmh 30.03 in1016.9 mb 0.00 in0.0 mm 0.00 in0.0 mm 0.44 in11.2 mm
08:27 AM 49.8°F9.9°C 49.2°F9.6°C 98% 4.7 mph ENE7.6 kmh ENE 14.0 mph22.5 kmh 30.03 in1016.9 mb 0.00 in0.0 mm 0.00 in0.0 mm 0.44 in11.2 mm
08:32 AM 49.8°F9.9°C 49.3°F9.6°C 98% 6.3 mph ENE10.1 kmh ENE 15.0 mph24.1 kmh 30.03 in1016.9 mb 0.00 in0.0 mm 0.00 in0.0 mm 0.44 in11.2 mm
08:37 AM 49.9°F9.9°C 49.3°F9.6°C 98% 6.0 mph NE9.7 kmh NE 15.0 mph24.1 kmh 30.04 in1017.3 mb 0.00 in0.0 mm 0.00 in0.0 mm 0.44 in11.2 mm
08:42 AM 49.9°F9.9°C 49.3°F9.6°C 98% 4.8 mph ENE7.7 kmh ENE 15.0 mph24.1 kmh 30.04 in1017.3 mb 0.00 in0.0 mm 0.00 in0.0 mm 0.44 in11.2 mm
08:47 AM 50.0°F10.0°C 49.5°F9.7°C 98% 4.7 mph NE7.6 kmh NE 15.0 mph24.1 kmh 30.04 in1017.3 mb 0.00 in0.0 mm 0.00 in0.0 mm 0.44 in11.2 mm
08:52 AM 50.0°F10.0°C 49.4°F9.7°C 98% 6.9 mph ENE11.1 kmh ENE 13.0 mph20.9 kmh 30.04 in1017.3 mb 0.00 in0.0 mm 0.00 in0.0 mm 0.44 in11.2 mm
08:57 AM 50.0°F10.0°C 49.4°F9.7°C 98% 3.9 mph ENE6.3 kmh ENE 13.0 mph20.9 kmh 30.04 in1017.3 mb 0.00 in0.0 mm 0.00 in0.0 mm 0.44 in11.2 mm
09:02 AM 50.1°F10.1°C 49.6°F9.8°C 98% 3.8 mph ENE6.1 kmh ENE 13.0 mph20.9 kmh 30.03 in1016.9 mb 0.00 in0.0 mm 0.00 in0.0 mm 0.44 in11.2 mm
09:07 AM 50.1°F10.1°C 49.5°F9.7°C 98% 5.4 mph ENE8.7 kmh ENE 12.0 mph19.3 kmh 30.03 in1016.9 mb 0.00 in0.0 mm 0.00 in0.0 mm 0.44 in11.2 mm
09:12 AM 50.2°F10.1°C 49.6°F9.8°C 98% 3.1 mph ENE5.0 kmh ENE 12.0 mph19.3 kmh 30.03 in1016.9 mb 0.00 in0.0 mm 0.00 in0.0 mm 0.44 in11.2 mm
09:17 AM 50.2°F10.1°C 49.6°F9.8°C 98% 3.2 mph ENE5.1 kmh ENE 12.0 mph19.3 kmh 30.03 in1016.9 mb 0.00 in0.0 mm 0.00 in0.0 mm 0.44 in11.2 mm
09:22 AM 50.4°F10.2°C 49.8°F9.9°C 98% 6.6 mph ENE10.6 kmh ENE 18.0 mph29.0 kmh 30.03 in1016.9 mb 0.00 in0.0 mm 0.00 in0.0 mm 0.44 in11.2 mm
09:27 AM 50.6°F10.3°C 50.0°F10.0°C 98% 7.7 mph ENE12.4 kmh ENE 18.0 mph29.0 kmh 30.03 in1016.9 mb 0.00 in0.0 mm 0.00 in0.0 mm 0.44 in11.2 mm
09:32 AM 50.6°F10.3°C 50.0°F10.0°C 98% 6.4 mph E10.3 kmh E 18.0 mph29.0 kmh 30.04 in1017.3 mb 0.00 in0.0 mm 0.00 in0.0 mm 0.44 in11.2 mm
09:37 AM 50.5°F10.3°C 49.9°F9.9°C 98% 4.0 mph E6.4 kmh E 18.0 mph29.0 kmh 30.04 in1017.3 mb 0.00 in0.0 mm 0.00 in0.0 mm 0.44 in11.2 mm
09:42 AM 50.5°F10.3°C 49.9°F9.9°C 98% 8.0 mph E12.9 kmh E 15.0 mph24.1 kmh 30.04 in1017.3 mb 0.00 in0.0 mm 0.00 in0.0 mm 0.44 in11.2 mm
09:47 AM 50.6°F10.3°C 50.1°F10.1°C 98% 7.4 mph E11.9 kmh E 15.0 mph24.1 kmh 30.04 in1017.3 mb 0.00 in0.0 mm 0.00 in0.0 mm 0.44 in11.2 mm
09:52 AM 50.6°F10.3°C 50.0°F10.0°C 98% 2.8 mph E4.5 kmh E 15.0 mph24.1 kmh 30.04 in1017.3 mb 0.00 in0.0 mm 0.00 in0.0 mm 0.44 in11.2 mm
09:57 AM 50.6°F10.3°C 50.0°F10.0°C 98% 6.9 mph ENE11.1 kmh ENE 15.0 mph24.1 kmh 30.04 in1017.3 mb 0.00 in0.0 mm 0.00 in0.0 mm 0.44 in11.2 mm
10:02 AM 50.6°F10.3°C 50.0°F10.0°C 98% 6.9 mph ENE11.1 kmh ENE 14.0 mph22.5 kmh 30.04 in1017.3 mb 0.00 in0.0 mm 0.00 in0.0 mm 0.44 in11.2 mm
10:07 AM 50.7°F10.4°C 50.2°F10.1°C 98% 4.0 mph ENE6.4 kmh ENE 13.0 mph20.9 kmh 30.04 in1017.3 mb 0.00 in0.0 mm 0.00 in0.0 mm 0.44 in11.2 mm
10:12 AM 50.7°F10.4°C 50.2°F10.1°C 98% 3.5 mph E5.6 kmh E 13.0 mph20.9 kmh 30.04 in1017.3 mb 0.00 in0.0 mm 0.00 in0.0 mm 0.44 in11.2 mm
10:17 AM 50.7°F10.4°C 50.1°F10.1°C 98% 6.7 mph ENE10.8 kmh ENE 15.0 mph24.1 kmh 30.04 in1017.3 mb 0.00 in0.0 mm 0.00 in0.0 mm 0.44 in11.2 mm
10:22 AM 50.7°F10.4°C 50.1°F10.1°C 98% 5.4 mph ENE8.7 kmh ENE 15.0 mph24.1 kmh 30.03 in1016.9 mb 0.00 in0.0 mm 0.00 in0.0 mm 0.44 in11.2 mm
10:27 AM 50.7°F10.4°C 50.1°F10.1°C 98% 6.0 mph ENE9.7 kmh ENE 15.0 mph24.1 kmh 30.02 in1016.6 mb 0.00 in0.0 mm 0.00 in0.0 mm 0.44 in11.2 mm
10:32 AM 50.8°F10.4°C 50.3°F10.2°C 98% 7.1 mph ENE11.4 kmh ENE 15.0 mph24.1 kmh 30.02 in1016.6 mb 0.00 in0.0 mm 0.00 in0.0 mm 0.44 in11.2 mm
10:37 AM 51.0°F10.6°C 50.4°F10.2°C 98% 3.7 mph ENE6.0 kmh ENE 15.0 mph24.1 kmh 30.02 in1016.6 mb 0.00 in0.0 mm 0.00 in0.0 mm 0.44 in11.2 mm
10:42 AM 51.1°F10.6°C 50.5°F10.3°C 98% 6.6 mph ENE10.6 kmh ENE 15.0 mph24.1 kmh 30.01 in1016.3 mb 0.00 in0.0 mm 0.00 in0.0 mm 0.44 in11.2 mm
10:47 AM 51.2°F10.7°C 50.6°F10.3°C 98% 9.2 mph ENE14.8 kmh ENE 18.0 mph29.0 kmh 30.02 in1016.6 mb 0.00 in0.0 mm 0.00 in0.0 mm 0.44 in11.2 mm
10:52 AM 51.4°F10.8°C 50.9°F10.5°C 98% 4.6 mph ENE7.4 kmh ENE 18.0 mph29.0 kmh 30.02 in1016.6 mb 0.00 in0.0 mm 0.00 in0.0 mm 0.44 in11.2 mm
10:57 AM 51.5°F10.8°C 50.9°F10.5°C 98% 2.9 mph NE4.7 kmh NE 18.0 mph29.0 kmh 30.02 in1016.6 mb 0.00 in0.0 mm 0.00 in0.0 mm 0.44 in11.2 mm
11:02 AM 51.7°F10.9°C 51.2°F10.7°C 98% 5.7 mph ENE9.2 kmh ENE 18.0 mph29.0 kmh 30.03 in1016.9 mb 0.00 in0.0 mm 0.00 in0.0 mm 0.44 in11.2 mm
11:07 AM 51.8°F11.0°C 51.2°F10.7°C 98% 3.2 mph E5.1 kmh E 14.0 mph22.5 kmh 30.03 in1016.9 mb 0.00 in0.0 mm 0.00 in0.0 mm 0.44 in11.2 mm
11:12 AM 51.9°F11.1°C 51.3°F10.7°C 98% 1.1 mph E1.8 kmh E 13.0 mph20.9 kmh 30.02 in1016.6 mb 0.00 in0.0 mm 0.00 in0.0 mm 0.44 in11.2 mm
11:17 AM 51.9°F11.1°C 51.3°F10.7°C 98% 2.5 mph NE4.0 kmh NE 13.0 mph20.9 kmh 30.03 in1016.9 mb 0.00 in0.0 mm 0.00 in0.0 mm 0.44 in11.2 mm
11:22 AM 51.8°F11.0°C 51.2°F10.7°C 98% 5.3 mph NE8.5 kmh NE 8.0 mph12.9 kmh 30.02 in1016.6 mb 0.00 in0.0 mm 0.00 in0.0 mm 0.44 in11.2 mm
11:27 AM 51.8°F11.0°C 51.3°F10.7°C 98% 3.6 mph NE5.8 kmh NE 9.0 mph14.5 kmh 30.00 in1015.9 mb 0.00 in0.0 mm 0.00 in0.0 mm 0.44 in11.2 mm
11:32 AM 51.8°F11.0°C 51.2°F10.7°C 98% 4.6 mph ENE7.4 kmh ENE 9.0 mph14.5 kmh 30.01 in1016.3 mb 0.00 in0.0 mm 0.00 in0.0 mm 0.44 in11.2 mm
11:37 AM 51.9°F11.1°C 51.3°F10.7°C 98% 3.0 mph ENE4.8 kmh ENE 9.0 mph14.5 kmh 30.01 in1016.3 mb 0.00 in0.0 mm 0.00 in0.0 mm 0.44 in11.2 mm
11:42 AM 52.0°F11.1°C 51.4°F10.8°C 98% 4.7 mph ENE7.6 kmh ENE 9.0 mph14.5 kmh 30.01 in1016.3 mb 0.00 in0.0 mm 0.00 in0.0 mm 0.44 in11.2 mm
11:47 AM 52.1°F11.2°C 51.5°F10.8°C 98% 2.3 mph NE3.7 kmh NE 9.0 mph14.5 kmh 30.01 in1016.3 mb 0.00 in0.0 mm 0.00 in0.0 mm 0.44 in11.2 mm
11:52 AM 52.1°F11.2°C 51.6°F10.9°C 98% 4.9 mph NE7.9 kmh NE 10.0 mph16.1 kmh 30.00 in1015.9 mb 0.00 in0.0 mm 0.00 in0.0 mm 0.44 in11.2 mm
11:57 AM 52.1°F11.2°C 51.5°F10.8°C 98% 3.1 mph NE5.0 kmh NE 10.0 mph16.1 kmh 29.99 in1015.6 mb 0.00 in0.0 mm 0.00 in0.0 mm 0.44 in11.2 mm
12:02 PM 52.1°F11.2°C 51.5°F10.8°C 98% 3.6 mph NE5.8 kmh NE 12.0 mph19.3 kmh 29.99 in1015.6 mb 0.00 in0.0 mm 0.00 in0.0 mm 0.44 in11.2 mm
12:06 PM 52.2°F11.2°C 51.6°F10.9°C 98% 4.5 mph ENE7.2 kmh ENE 12.0 mph19.3 kmh 29.98 in1015.2 mb 0.00 in0.0 mm 0.00 in0.0 mm 0.44 in11.2 mm
12:11 PM 52.2°F11.2°C 51.6°F10.9°C 98% 5.6 mph ENE9.0 kmh ENE 15.0 mph24.1 kmh 29.97 in1014.9 mb 0.00 in0.0 mm 0.00 in0.0 mm 0.44 in11.2 mm
12:16 PM 52.2°F11.2°C 51.6°F10.9°C 98% 7.3 mph ENE11.7 kmh ENE 15.0 mph24.1 kmh 29.96 in1014.6 mb 0.00 in0.0 mm 0.00 in0.0 mm 0.44 in11.2 mm
12:21 PM 52.2°F11.2°C 51.6°F10.9°C 98% 6.4 mph ENE10.3 kmh ENE 16.0 mph25.7 kmh 29.96 in1014.6 mb 0.00 in0.0 mm 0.00 in0.0 mm 0.44 in11.2 mm
12:26 PM 52.3°F11.3°C 51.8°F11.0°C 98% 6.2 mph ENE10.0 kmh ENE 16.0 mph25.7 kmh 29.96 in1014.6 mb 0.00 in0.0 mm 0.00 in0.0 mm 0.44 in11.2 mm
12:31 PM 52.3°F11.3°C 51.8°F11.0°C 98% 3.8 mph ENE6.1 kmh ENE 16.0 mph25.7 kmh 29.97 in1014.9 mb 0.00 in0.0 mm 0.00 in0.0 mm 0.44 in11.2 mm
12:36 PM 52.4°F11.3°C 51.8°F11.0°C 98% 6.6 mph ENE10.6 kmh ENE 16.0 mph25.7 kmh 29.96 in1014.6 mb 0.00 in0.0 mm 0.00 in0.0 mm 0.44 in11.2 mm
12:41 PM 52.4°F11.3°C 51.8°F11.0°C 98% 4.2 mph ENE6.8 kmh ENE 15.0 mph24.1 kmh 29.96 in1014.6 mb 0.00 in0.0 mm 0.00 in0.0 mm 0.44 in11.2 mm
12:46 PM 52.4°F11.3°C 51.8°F11.0°C 98% 5.3 mph NE8.5 kmh NE 12.0 mph19.3 kmh 29.96 in1014.6 mb 0.01 in0.3 mm 0.12 in3.0 mm 0.45 in11.4 mm
12:51 PM 52.4°F11.3°C 51.9°F11.1°C 98% 6.0 mph NE9.7 kmh NE 12.0 mph19.3 kmh 29.96 in1014.6 mb 0.01 in0.3 mm 0.00 in0.0 mm 0.45 in11.4 mm
12:56 PM 52.4°F11.3°C 51.8°F11.0°C 98% 5.6 mph NE9.0 kmh NE 12.0 mph19.3 kmh 29.96 in1014.6 mb 0.01 in0.3 mm 0.00 in0.0 mm 0.45 in11.4 mm
01:01 PM 52.5°F11.4°C 51.9°F11.1°C 98% 2.6 mph NE4.2 kmh NE 12.0 mph19.3 kmh 29.97 in1014.9 mb 0.01 in0.3 mm 0.00 in0.0 mm 0.45 in11.4 mm
01:06 PM 52.5°F11.4°C 51.9°F11.1°C 98% 5.5 mph NE8.9 kmh NE 12.0 mph19.3 kmh 29.97 in1014.9 mb 0.01 in0.3 mm 0.00 in0.0 mm 0.45 in11.4 mm
01:11 PM 52.6°F11.4°C 52.0°F11.1°C 98% 4.3 mph NE6.9 kmh NE 11.0 mph17.7 kmh 29.97 in1014.9 mb 0.01 in0.3 mm 0.00 in0.0 mm 0.45 in11.4 mm
01:16 PM 52.6°F11.4°C 52.1°F11.2°C 98% 1.7 mph NE2.7 kmh NE 11.0 mph17.7 kmh 29.97 in1014.9 mb 0.01 in0.3 mm 0.00 in0.0 mm 0.45 in11.4 mm
01:21 PM 52.4°F11.3°C 51.9°F11.1°C 98% 4.3 mph NE6.9 kmh NE 11.0 mph17.7 kmh 29.97 in1014.9 mb 0.01 in0.3 mm 0.00 in0.0 mm 0.45 in11.4 mm
01:26 PM 52.3°F11.3°C 51.7°F10.9°C 98% 2.9 mph NE4.7 kmh NE 9.0 mph14.5 kmh 29.97 in1014.9 mb 0.01 in0.3 mm 0.00 in0.0 mm 0.45 in11.4 mm
01:31 PM 52.0°F11.1°C 51.4°F10.8°C 98% 3.2 mph NE5.1 kmh NE 9.0 mph14.5 kmh 29.96 in1014.6 mb 0.01 in0.3 mm 0.00 in0.0 mm 0.45 in11.4 mm
01:36 PM 51.9°F11.1°C 51.4°F10.8°C 98% 2.1 mph NE3.4 kmh NE 9.0 mph14.5 kmh 29.96 in1014.6 mb 0.01 in0.3 mm 0.00 in0.0 mm 0.45 in11.4 mm
01:41 PM 51.8°F11.0°C 51.3°F10.7°C 98% 3.2 mph NE5.1 kmh NE 8.0 mph12.9 kmh 29.96 in1014.6 mb 0.01 in0.3 mm 0.00 in0.0 mm 0.45 in11.4 mm
01:46 PM 51.7°F10.9°C 51.2°F10.7°C 98% 2.6 mph NE4.2 kmh NE 8.0 mph12.9 kmh 29.95 in1014.2 mb 0.01 in0.3 mm 0.00 in0.0 mm 0.46 in11.7 mm
01:51 PM 51.6°F10.9°C 51.0°F10.6°C 98% 2.2 mph NE3.5 kmh NE 6.0 mph9.7 kmh 29.96 in1014.6 mb 0.01 in0.3 mm 0.00 in0.0 mm 0.46 in11.7 mm
01:56 PM 51.7°F10.9°C 51.2°F10.7°C 98% 2.4 mph NE3.9 kmh NE 6.0 mph9.7 kmh 29.96 in1014.6 mb 0.01 in0.3 mm 0.00 in0.0 mm 0.46 in11.7 mm
02:01 PM 51.6°F10.9°C 51.0°F10.6°C 98% 1.9 mph NE3.1 kmh NE 6.0 mph9.7 kmh 29.96 in1014.6 mb 0.01 in0.3 mm 0.00 in0.0 mm 0.46 in11.7 mm
02:06 PM 51.5°F10.8°C 51.0°F10.6°C 98% 4.0 mph NE6.4 kmh NE 6.0 mph9.7 kmh 29.96 in1014.6 mb 0.01 in0.3 mm 0.00 in0.0 mm 0.46 in11.7 mm
02:11 PM 51.4°F10.8°C 50.9°F10.5°C 98% 1.8 mph NE2.9 kmh NE 7.0 mph11.3 kmh 29.95 in1014.2 mb 0.02 in0.5 mm 0.12 in3.0 mm 0.47 in11.9 mm
02:16 PM 51.4°F10.8°C 50.8°F10.4°C 98% 3.1 mph NE5.0 kmh NE 7.0 mph11.3 kmh 29.96 in1014.6 mb 0.02 in0.5 mm 0.00 in0.0 mm 0.47 in11.9 mm
02:21 PM 51.3°F10.7°C 50.7°F10.4°C 98% 3.5 mph NE5.6 kmh NE 10.0 mph16.1 kmh 29.94 in1013.9 mb 0.02 in0.5 mm 0.00 in0.0 mm 0.47 in11.9 mm
02:26 PM 51.1°F10.6°C 50.6°F10.3°C 98% 5.9 mph NE9.5 kmh NE 11.0 mph17.7 kmh 29.94 in1013.9 mb 0.02 in0.5 mm 0.00 in0.0 mm 0.47 in11.9 mm
02:31 PM 51.1°F10.6°C 50.6°F10.3°C 98% 3.6 mph NE5.8 kmh NE 11.0 mph17.7 kmh 29.95 in1014.2 mb 0.02 in0.5 mm 0.00 in0.0 mm 0.47 in11.9 mm
02:36 PM 51.0°F10.6°C 50.5°F10.3°C 98% 5.1 mph NE8.2 kmh NE 11.0 mph17.7 kmh 29.95 in1014.2 mb 0.03 in0.8 mm 0.12 in3.0 mm 0.48 in12.2 mm
02:41 PM 50.9°F10.5°C 50.3°F10.2°C 98% 6.1 mph NE9.8 kmh NE 11.0 mph17.7 kmh 29.95 in1014.2 mb 0.03 in0.8 mm 0.00 in0.0 mm 0.48 in12.2 mm
02:46 PM 50.8°F10.4°C 50.2°F10.1°C 98% 3.7 mph NE6.0 kmh NE 10.0 mph16.1 kmh 29.95 in1014.2 mb 0.02 in0.5 mm 0.00 in0.0 mm 0.48 in12.2 mm
02:51 PM 50.7°F10.4°C 50.1°F10.1°C 98% 6.1 mph NE9.8 kmh NE 12.0 mph19.3 kmh 29.95 in1014.2 mb 0.02 in0.5 mm 0.00 in0.0 mm 0.48 in12.2 mm
02:56 PM 50.5°F10.3°C 49.9°F9.9°C 98% 6.2 mph NE10.0 kmh NE 14.0 mph22.5 kmh 29.95 in1014.2 mb 0.02 in0.5 mm 0.00 in0.0 mm 0.48 in12.2 mm
03:01 PM 50.5°F10.3°C 49.9°F9.9°C 98% 4.3 mph NE6.9 kmh NE 14.0 mph22.5 kmh 29.95 in1014.2 mb 0.02 in0.5 mm 0.00 in0.0 mm 0.48 in12.2 mm
03:06 PM 50.4°F10.2°C 49.8°F9.9°C 98% 5.4 mph NE8.7 kmh NE 14.0 mph22.5 kmh 29.95 in1014.2 mb 0.02 in0.5 mm 0.00 in0.0 mm 0.48 in12.2 mm
03:11 PM 50.4°F10.2°C 49.8°F9.9°C 98% 5.8 mph NE9.3 kmh NE 14.0 mph22.5 kmh 29.95 in1014.2 mb 0.01 in0.3 mm 0.00 in0.0 mm 0.48 in12.2 mm
03:16 PM 50.3°F10.2°C 49.7°F9.8°C 98% 3.7 mph NE6.0 kmh NE 13.0 mph20.9 kmh 29.95 in1014.2 mb 0.01 in0.3 mm 0.00 in0.0 mm 0.48 in12.2 mm
03:21 PM 50.3°F10.2°C 49.7°F9.8°C 98% 2.8 mph NNE4.5 kmh NNE 13.0 mph20.9 kmh 29.95 in1014.2 mb 0.02 in0.5 mm 0.12 in3.0 mm 0.49 in12.4 mm
03:26 PM 50.3°F10.2°C 49.7°F9.8°C 98% 3.3 mph NE5.3 kmh NE 13.0 mph20.9 kmh 29.95 in1014.2 mb 0.02 in0.5 mm 0.00 in0.0 mm 0.49 in12.4 mm
03:31 PM 50.2°F10.1°C 49.6°F9.8°C 98% 3.8 mph NE6.1 kmh NE 10.0 mph16.1 kmh 29.95 in1014.2 mb 0.02 in0.5 mm 0.00 in0.0 mm 0.49 in12.4 mm
03:36 PM 50.1°F10.1°C 49.5°F9.7°C 98% 2.2 mph N3.5 kmh N 10.0 mph16.1 kmh 29.95 in1014.2 mb 0.01 in0.3 mm 0.00 in0.0 mm 0.49 in12.4 mm
03:41 PM 50.1°F10.1°C 49.5°F9.7°C 98% 3.6 mph NE5.8 kmh NE 10.0 mph16.1 kmh 29.94 in1013.9 mb 0.01 in0.3 mm 0.00 in0.0 mm 0.49 in12.4 mm
03:46 PM 50.0°F10.0°C 49.4°F9.7°C 98% 7.2 mph NE11.6 kmh NE 17.0 mph27.4 kmh 29.93 in1013.5 mb 0.02 in0.5 mm 0.12 in3.0 mm 0.50 in12.7 mm
03:51 PM 49.9°F9.9°C 49.3°F9.6°C 98% 6.7 mph NE10.8 kmh NE 17.0 mph27.4 kmh 29.92 in1013.2 mb 0.03 in0.8 mm 0.12 in3.0 mm 0.51 in13.0 mm
03:56 PM 50.0°F10.0°C 49.4°F9.7°C 98% 3.7 mph ENE6.0 kmh ENE 17.0 mph27.4 kmh 29.92 in1013.2 mb 0.03 in0.8 mm 0.00 in0.0 mm 0.51 in13.0 mm
04:01 PM 50.1°F10.1°C 49.5°F9.7°C 98% 6.4 mph ENE10.3 kmh ENE 17.0 mph27.4 kmh 29.93 in1013.5 mb 0.03 in0.8 mm 0.00 in0.0 mm 0.51 in13.0 mm
04:07 PM 50.1°F10.1°C 49.5°F9.7°C 98% 6.8 mph NE10.9 kmh NE 13.0 mph20.9 kmh 29.94 in1013.9 mb 0.03 in0.8 mm 0.00 in0.0 mm 0.51 in13.0 mm
04:12 PM 50.2°F10.1°C 49.6°F9.8°C 98% 5.1 mph NE8.2 kmh NE 13.0 mph20.9 kmh 29.93 in1013.5 mb 0.03 in0.8 mm 0.00 in0.0 mm 0.51 in13.0 mm
04:17 PM 50.2°F10.1°C 49.6°F9.8°C 98% 5.1 mph NE8.2 kmh NE 12.0 mph19.3 kmh 29.93 in1013.5 mb 0.03 in0.8 mm 0.00 in0.0 mm 0.51 in13.0 mm
04:22 PM 50.2°F10.1°C 49.7°F9.8°C 98% 4.8 mph NE7.7 kmh NE 12.0 mph19.3 kmh 29.92 in1013.2 mb 0.02 in0.5 mm 0.00 in0.0 mm 0.51 in13.0 mm
04:27 PM 50.2°F10.1°C 49.6°F9.8°C 98% 6.1 mph NE9.8 kmh NE 12.0 mph19.3 kmh 29.92 in1013.2 mb 0.02 in0.5 mm 0.00 in0.0 mm 0.51 in13.0 mm
04:32 PM 50.2°F10.1°C 49.7°F9.8°C 98% 3.2 mph NE5.1 kmh NE 12.0 mph19.3 kmh 29.93 in1013.5 mb 0.02 in0.5 mm 0.00 in0.0 mm 0.51 in13.0 mm
04:37 PM 50.3°F10.2°C 49.8°F9.9°C 98% 3.9 mph NE6.3 kmh NE 12.0 mph19.3 kmh 29.92 in1013.2 mb 0.02 in0.5 mm 0.00 in0.0 mm 0.51 in13.0 mm
04:42 PM 50.3°F10.2°C 49.7°F9.8°C 98% 4.2 mph NE6.8 kmh NE 12.0 mph19.3 kmh 29.93 in1013.5 mb 0.02 in0.5 mm 0.00 in0.0 mm 0.51 in13.0 mm
04:47 PM 50.4°F10.2°C 49.8°F9.9°C 98% 4.3 mph NE6.9 kmh NE 10.0 mph16.1 kmh 29.93 in1013.5 mb 0.01 in0.3 mm 0.00 in0.0 mm 0.51 in13.0 mm
04:52 PM 50.4°F10.2°C 49.8°F9.9°C 98% 5.1 mph NE8.2 kmh NE 10.0 mph16.1 kmh 29.93 in1013.5 mb 0.01 in0.3 mm 0.00 in0.0 mm 0.52 in13.2 mm
04:57 PM 50.5°F10.3°C 49.9°F9.9°C 98% 3.1 mph NE5.0 kmh NE 11.0 mph17.7 kmh 29.93 in1013.5 mb 0.01 in0.3 mm 0.00 in0.0 mm 0.52 in13.2 mm
05:02 PM 50.5°F10.3°C 49.9°F9.9°C 98% 2.1 mph NE3.4 kmh NE 11.0 mph17.7 kmh 29.93 in1013.5 mb 0.01 in0.3 mm 0.00 in0.0 mm 0.52 in13.2 mm
05:05 PM 50.5°F10.3°C 50.0°F10.0°C 98% 3.4 mph NE5.5 kmh NE 11.0 mph17.7 kmh 29.93 in1013.5 mb 0.01 in0.3 mm 0.00 in0.0 mm 0.52 in13.2 mm
05:10 PM 50.5°F10.3°C 49.9°F9.9°C 98% 4.8 mph ENE7.7 kmh ENE 11.0 mph17.7 kmh 29.94 in1013.9 mb 0.01 in0.3 mm 0.00 in0.0 mm 0.52 in13.2 mm
05:15 PM 50.6°F10.3°C 50.0°F10.0°C 98% 2.4 mph NE3.9 kmh NE 11.0 mph17.7 kmh 29.94 in1013.9 mb 0.01 in0.3 mm 0.00 in0.0 mm 0.52 in13.2 mm
05:20 PM 50.6°F10.3°C 50.0°F10.0°C 98% 3.8 mph ENE6.1 kmh ENE 10.0 mph16.1 kmh 29.95 in1014.2 mb 0.01 in0.3 mm 0.00 in0.0 mm 0.52 in13.2 mm
05:25 PM 50.6°F10.3°C 50.1°F10.1°C 98% 3.4 mph NE5.5 kmh NE 10.0 mph16.1 kmh 29.95 in1014.2 mb 0.01 in0.3 mm 0.00 in0.0 mm 0.52 in13.2 mm
05:31 PM 50.6°F10.3°C 50.0°F10.0°C 98% 1.5 mph ENE2.4 kmh ENE 7.0 mph11.3 kmh 29.94 in1013.9 mb 0.01 in0.3 mm 0.00 in0.0 mm 0.52 in13.2 mm
05:35 PM 50.6°F10.3°C 50.1°F10.1°C 98% 4.4 mph NE7.1 kmh NE 7.0 mph11.3 kmh 29.94 in1013.9 mb 0.01 in0.3 mm 0.00 in0.0 mm 0.52 in13.2 mm
05:40 PM 50.6°F10.3°C 50.0°F10.0°C 98% 2.9 mph E4.7 kmh E 7.0 mph11.3 kmh 29.95 in1014.2 mb 0.01 in0.3 mm 0.00 in0.0 mm 0.52 in13.2 mm
05:45 PM 50.7°F10.4°C 50.1°F10.1°C 98% 2.7 mph ENE4.3 kmh ENE 7.0 mph11.3 kmh 29.94 in1013.9 mb 0.01 in0.3 mm 0.00 in0.0 mm 0.52 in13.2 mm
05:51 PM 50.7°F10.4°C 50.2°F10.1°C 98% 1.3 mph E2.1 kmh E 7.0 mph11.3 kmh 29.94 in1013.9 mb 0.00 in0.0 mm 0.00 in0.0 mm 0.52 in13.2 mm
05:55 PM 50.7°F10.4°C 50.2°F10.1°C 98% 1.9 mph ENE3.1 kmh ENE 7.0 mph11.3 kmh 29.94 in1013.9 mb 0.00 in0.0 mm 0.00 in0.0 mm 0.52 in13.2 mm
06:01 PM 50.8°F10.4°C 50.2°F10.1°C 98% 3.1 mph NE5.0 kmh NE 6.0 mph9.7 kmh 29.94 in1013.9 mb 0.00 in0.0 mm 0.00 in0.0 mm 0.52 in13.2 mm
06:06 PM 50.8°F10.4°C 50.2°F10.1°C 98% 2.2 mph E3.5 kmh E 7.0 mph11.3 kmh 29.94 in1013.9 mb 0.00 in0.0 mm 0.00 in0.0 mm 0.52 in13.2 mm
06:11 PM 50.8°F10.4°C 50.3°F10.2°C 98% 2.0 mph ENE3.2 kmh ENE 7.0 mph11.3 kmh 29.94 in1013.9 mb 0.00 in0.0 mm 0.00 in0.0 mm 0.52 in13.2 mm
06:16 PM 50.8°F10.4°C 50.3°F10.2°C 98% 4.4 mph NE7.1 kmh NE 9.0 mph14.5 kmh 29.93 in1013.5 mb 0.00 in0.0 mm 0.00 in0.0 mm 0.52 in13.2 mm
06:20 PM 50.9°F10.5°C 50.3°F10.2°C 98% 2.0 mph NE3.2 kmh NE 9.0 mph14.5 kmh 29.94 in1013.9 mb 0.00 in0.0 mm 0.00 in0.0 mm 0.52 in13.2 mm
06:26 PM 51.0°F10.6°C 50.4°F10.2°C 98% 2.0 mph NE3.2 kmh NE 9.0 mph14.5 kmh 29.94 in1013.9 mb 0.00 in0.0 mm 0.00 in0.0 mm 0.52 in13.2 mm
06:31 PM 51.0°F10.6°C 50.4°F10.2°C 98% 1.8 mph NE2.9 kmh NE 9.0 mph14.5 kmh 29.95 in1014.2 mb 0.00 in0.0 mm 0.00 in0.0 mm 0.52 in13.2 mm
06:36 PM 51.0°F10.6°C 50.4°F10.2°C 98% 2.6 mph ENE4.2 kmh ENE 4.0 mph6.4 kmh 29.94 in1013.9 mb 0.00 in0.0 mm 0.00 in0.0 mm 0.52 in13.2 mm
06:41 PM 51.0°F10.6°C 50.5°F10.3°C 98% 1.8 mph NE2.9 kmh NE 5.0 mph8.0 kmh 29.93 in1013.5 mb 0.00 in0.0 mm 0.00 in0.0 mm 0.52 in13.2 mm
06:46 PM 51.0°F10.6°C 50.4°F10.2°C 98% 2.9 mph ENE4.7 kmh ENE 6.0 mph9.7 kmh 29.93 in1013.5 mb 0.00 in0.0 mm 0.00 in0.0 mm 0.52 in13.2 mm
06:51 PM 51.0°F10.6°C 50.4°F10.2°C 98% 2.9 mph NE4.7 kmh NE 6.0 mph9.7 kmh 29.93 in1013.5 mb 0.00 in0.0 mm 0.00 in0.0 mm 0.52 in13.2 mm
06:56 PM 51.0°F10.6°C 50.5°F10.3°C 98% 2.8 mph NE4.5 kmh NE 6.0 mph9.7 kmh 29.93 in1013.5 mb 0.00 in0.0 mm 0.00 in0.0 mm 0.52 in13.2 mm
07:01 PM 51.1°F10.6°C 50.6°F10.3°C 98% 3.0 mph ENE4.8 kmh ENE 7.0 mph11.3 kmh 29.93 in1013.5 mb 0.00 in0.0 mm 0.00 in0.0 mm 0.52 in13.2 mm
07:06 PM 51.1°F10.6°C 50.6°F10.3°C 98% 1.0 mph ENE1.6 kmh ENE 7.0 mph11.3 kmh 29.95 in1014.2 mb 0.01 in0.3 mm 0.12 in3.0 mm 0.53 in13.5 mm
07:11 PM 51.2°F10.7°C 50.7°F10.4°C 98% 1.2 mph E1.9 kmh E 7.0 mph11.3 kmh 29.95 in1014.2 mb 0.01 in0.3 mm 0.00 in0.0 mm 0.53 in13.5 mm
07:16 PM 51.2°F10.7°C 50.6°F10.3°C 98% 1.0 mph ENE1.6 kmh ENE 7.0 mph11.3 kmh 29.96 in1014.6 mb 0.01 in0.3 mm 0.00 in0.0 mm 0.53 in13.5 mm
07:21 PM 51.2°F10.7°C 50.7°F10.4°C 98% 1.4 mph NE2.3 kmh NE 4.0 mph6.4 kmh 29.96 in1014.6 mb 0.01 in0.3 mm 0.00 in0.0 mm 0.53 in13.5 mm
07:26 PM 51.2°F10.7°C 50.7°F10.4°C 98% 1.3 mph NE2.1 kmh NE 3.0 mph4.8 kmh 29.95 in1014.2 mb 0.01 in0.3 mm 0.00 in0.0 mm 0.53 in13.5 mm
07:31 PM 51.2°F10.7°C 50.7°F10.4°C 98% 2.0 mph NE3.2 kmh NE 4.0 mph6.4 kmh 29.95 in1014.2 mb 0.03 in0.8 mm 0.24 in6.1 mm 0.55 in14.0 mm
07:36 PM 51.3°F10.7°C 50.7°F10.4°C 98% 1.2 mph NE1.9 kmh NE 4.0 mph6.4 kmh 29.95 in1014.2 mb 0.06 in1.5 mm 0.36 in9.1 mm 0.58 in14.7 mm
07:41 PM 51.2°F10.7°C 50.6°F10.3°C 98% 1.7 mph NE2.7 kmh NE 4.0 mph6.4 kmh 29.96 in1014.6 mb 0.08 in2.0 mm 0.24 in6.1 mm 0.60 in15.2 mm
07:46 PM 51.3°F10.7°C 50.8°F10.4°C 98% 1.6 mph NE2.6 kmh NE 4.0 mph6.4 kmh 29.96 in1014.6 mb 0.10 in2.5 mm 0.24 in6.1 mm 0.62 in15.7 mm
07:51 PM 51.2°F10.7°C 50.6°F10.3°C 98% 2.5 mph NE4.0 kmh NE 5.0 mph8.0 kmh 29.95 in1014.2 mb 0.11 in2.8 mm 0.12 in3.0 mm 0.63 in16.0 mm
07:56 PM 51.2°F10.7°C 50.7°F10.4°C 98% 2.0 mph NE3.2 kmh NE 5.0 mph8.0 kmh 29.95 in1014.2 mb 0.13 in3.3 mm 0.24 in6.1 mm 0.65 in16.5 mm
08:01 PM 51.2°F10.7°C 50.7°F10.4°C 98% 2.0 mph NE3.2 kmh NE 5.0 mph8.0 kmh 29.96 in1014.6 mb 0.15 in3.8 mm 0.02 in0.5 mm 0.67 in17.0 mm
08:06 PM 51.3°F10.7°C 50.7°F10.4°C 98% 1.0 mph ENE1.6 kmh ENE 5.0 mph8.0 kmh 29.97 in1014.9 mb 0.15 in3.8 mm 0.00 in0.0 mm 0.68 in17.3 mm
08:11 PM 51.3°F10.7°C 50.7°F10.4°C 98% 1.0 mph ENE1.6 kmh ENE 5.0 mph8.0 kmh 29.97 in1014.9 mb 0.17 in4.3 mm 0.24 in6.1 mm 0.70 in17.8 mm
08:16 PM 51.3°F10.7°C 50.8°F10.4°C 98% Calm Calm 5.0 mph8.0 kmh 29.97 in1014.9 mb 0.20 in5.1 mm 0.36 in9.1 mm 0.74 in18.8 mm
08:21 PM 51.3°F10.7°C 50.8°F10.4°C 98% Calm Calm 3.0 mph4.8 kmh 29.97 in1014.9 mb 0.27 in6.9 mm 0.84 in21.3 mm 0.81 in20.6 mm
08:26 PM 51.2°F10.7°C 50.7°F10.4°C 98% 3.3 mph NE5.3 kmh NE 6.0 mph9.7 kmh 29.97 in1014.9 mb 0.35 in8.9 mm 0.96 in24.4 mm 0.88 in22.4 mm
08:31 PM 51.1°F10.6°C 50.5°F10.3°C 98% 2.6 mph NE4.2 kmh NE 6.0 mph9.7 kmh 29.97 in1014.9 mb 0.38 in9.7 mm 0.36 in9.1 mm 0.94 in23.9 mm
08:36 PM 51.0°F10.6°C 50.5°F10.3°C 98% 1.8 mph NE2.9 kmh NE 6.0 mph9.7 kmh 29.97 in1014.9 mb 0.40 in10.2 mm 0.24 in6.1 mm 0.98 in24.9 mm
08:41 PM 51.0°F10.6°C 50.5°F10.3°C 98% 2.0 mph NE3.2 kmh NE 6.0 mph9.7 kmh 29.97 in1014.9 mb 0.43 in10.9 mm 0.36 in9.1 mm 1.03 in26.2 mm
08:46 PM 51.0°F10.6°C 50.4°F10.2°C 98% 3.2 mph NE5.1 kmh NE 7.0 mph11.3 kmh 29.97 in1014.9 mb 0.45 in11.4 mm 0.24 in6.1 mm 1.07 in27.2 mm
08:51 PM 51.0°F10.6°C 50.4°F10.2°C 98% 2.9 mph NE4.7 kmh NE 8.0 mph12.9 kmh 29.97 in1014.9 mb 0.45 in11.4 mm 0.00 in0.0 mm 1.08 in27.4 mm
08:56 PM 51.0°F10.6°C 50.4°F10.2°C 98% Calm Calm 8.0 mph12.9 kmh 29.98 in1015.2 mb 0.44 in11.2 mm 0.00 in0.0 mm 1.09 in27.7 mm
09:01 PM 51.0°F10.6°C 50.5°F10.3°C 98% Calm Calm 8.0 mph12.9 kmh 29.99 in1015.6 mb 0.43 in10.9 mm 0.00 in0.0 mm 1.10 in27.9 mm
09:06 PM 51.0°F10.6°C 50.5°F10.3°C 98% 1.3 mph NW2.1 kmh NW 8.0 mph12.9 kmh 29.99 in1015.6 mb 0.42 in10.7 mm 0.00 in0.0 mm 1.11 in28.2 mm
09:11 PM 51.0°F10.6°C 50.4°F10.2°C 98% 1.0 mph NW1.6 kmh NW 6.0 mph9.7 kmh 29.99 in1015.6 mb 0.41 in10.4 mm 0.00 in0.0 mm 1.11 in28.2 mm
09:16 PM 51.0°F10.6°C 50.4°F10.2°C 98% 1.0 mph ENE1.6 kmh ENE 6.0 mph9.7 kmh 29.99 in1015.6 mb 0.38 in9.7 mm 0.00 in0.0 mm 1.12 in28.4 mm
09:21 PM 51.1°F10.6°C 50.5°F10.3°C 98% 1.2 mph NE1.9 kmh NE 3.0 mph4.8 kmh 29.99 in1015.6 mb 0.32 in8.1 mm 0.00 in0.0 mm 1.13 in28.7 mm
09:26 PM 51.1°F10.6°C 50.8°F10.4°C 99% 1.8 mph NE2.9 kmh NE 3.0 mph4.8 kmh 29.99 in1015.6 mb 0.25 in6.4 mm 0.00 in0.0 mm 1.14 in29.0 mm
09:31 PM 51.0°F10.6°C 50.4°F10.2°C 98% 1.7 mph NE2.7 kmh NE 4.0 mph6.4 kmh 29.99 in1015.6 mb 0.21 in5.3 mm 0.00 in0.0 mm 1.15 in29.2 mm
09:36 PM 51.0°F10.6°C 50.7°F10.4°C 99% 2.7 mph NNE4.3 kmh NNE 6.0 mph9.7 kmh 29.99 in1015.6 mb 0.18 in4.6 mm 0.00 in0.0 mm 1.16 in29.5 mm
09:41 PM 50.9°F10.5°C 50.6°F10.3°C 99% 1.7 mph N2.7 kmh N 6.0 mph9.7 kmh 29.98 in1015.2 mb 0.15 in3.8 mm 0.00 in0.0 mm 1.18 in30.0 mm
09:46 PM 50.9°F10.5°C 50.6°F10.3°C 99% 1.3 mph N2.1 kmh N 6.0 mph9.7 kmh 29.98 in1015.2 mb 0.12 in3.0 mm 0.00 in0.0 mm 1.19 in30.2 mm
09:51 PM 50.8°F10.4°C 50.2°F10.1°C 98% 2.3 mph NE3.7 kmh NE 6.0 mph9.7 kmh 29.98 in1015.2 mb 0.12 in3.0 mm 0.00 in0.0 mm 1.20 in30.5 mm
09:56 PM 50.8°F10.4°C 50.2°F10.1°C 98% 1.9 mph NE3.1 kmh NE 5.0 mph8.0 kmh 29.98 in1015.2 mb 0.12 in3.0 mm 0.00 in0.0 mm 1.21 in30.7 mm
10:01 PM 50.8°F10.4°C 50.3°F10.2°C 98% 4.8 mph NE7.7 kmh NE 8.0 mph12.9 kmh 29.98 in1015.2 mb 0.11 in2.8 mm 0.00 in0.0 mm 1.21 in30.7 mm
10:05 PM 50.8°F10.4°C 50.3°F10.2°C 98% 3.9 mph NE6.3 kmh NE 8.0 mph12.9 kmh 29.97 in1014.9 mb 0.12 in3.0 mm 0.15 in3.8 mm 1.22 in31.0 mm
10:10 PM 50.7°F10.4°C 50.1°F10.1°C 98% 1.6 mph ENE2.6 kmh ENE 8.0 mph12.9 kmh 29.97 in1014.9 mb 0.11 in2.8 mm 0.00 in0.0 mm 1.22 in31.0 mm
10:15 PM 50.7°F10.4°C 50.4°F10.2°C 99% 1.5 mph NE2.4 kmh NE 8.0 mph12.9 kmh 29.97 in1014.9 mb 0.11 in2.8 mm 0.00 in0.0 mm 1.23 in31.2 mm
10:20 PM 50.7°F10.4°C 50.4°F10.2°C 99% 3.2 mph NE5.1 kmh NE 7.0 mph11.3 kmh 29.97 in1014.9 mb 0.10 in2.5 mm 0.00 in0.0 mm 1.23 in31.2 mm
10:25 PM 50.6°F10.3°C 50.3°F10.2°C 99% 4.0 mph ENE6.4 kmh ENE 9.0 mph14.5 kmh 29.96 in1014.6 mb 0.10 in2.5 mm 0.00 in0.0 mm 1.23 in31.2 mm
10:30 PM 50.7°F10.4°C 50.4°F10.2°C 99% 3.4 mph NE5.5 kmh NE 9.0 mph14.5 kmh 29.96 in1014.6 mb 0.08 in2.0 mm 0.00 in0.0 mm 1.23 in31.2 mm
10:35 PM 50.7°F10.4°C 50.4°F10.2°C 99% 3.3 mph ENE5.3 kmh ENE 9.0 mph14.5 kmh 29.96 in1014.6 mb 0.07 in1.8 mm 0.00 in0.0 mm 1.23 in31.2 mm
10:40 PM 50.7°F10.4°C 50.4°F10.2°C 99% 1.5 mph NE2.4 kmh NE 8.0 mph12.9 kmh 29.95 in1014.2 mb 0.05 in1.3 mm 0.00 in0.0 mm 1.23 in31.2 mm
10:45 PM 50.7°F10.4°C 50.4°F10.2°C 99% 1.8 mph NE2.9 kmh NE 9.0 mph14.5 kmh 29.95 in1014.2 mb 0.05 in1.3 mm 0.00 in0.0 mm 1.23 in31.2 mm
10:50 PM 50.7°F10.4°C 50.4°F10.2°C 99% 1.4 mph NE2.3 kmh NE 9.0 mph14.5 kmh 29.95 in1014.2 mb 0.04 in1.0 mm 0.00 in0.0 mm 1.24 in31.5 mm
10:55 PM 50.6°F10.3°C 50.3°F10.2°C 99% 4.8 mph ENE7.7 kmh ENE 11.0 mph17.7 kmh 29.95 in1014.2 mb 0.03 in0.8 mm 0.00 in0.0 mm 1.24 in31.5 mm
11:00 PM 50.6°F10.3°C 50.0°F10.0°C 98% 3.4 mph ENE5.5 kmh ENE 11.0 mph17.7 kmh 29.95 in1014.2 mb 0.03 in0.8 mm 0.00 in0.0 mm 1.24 in31.5 mm
11:05 PM 50.6°F10.3°C 50.3°F10.2°C 99% 2.1 mph ENE3.4 kmh ENE 11.0 mph17.7 kmh 29.95 in1014.2 mb 0.02 in0.5 mm 0.00 in0.0 mm 1.24 in31.5 mm
11:10 PM 50.6°F10.3°C 50.3°F10.2°C 99% 2.2 mph E3.5 kmh E 11.0 mph17.7 kmh 29.97 in1014.9 mb 0.02 in0.5 mm 0.00 in0.0 mm 1.24 in31.5 mm
11:15 PM 50.7°F10.4°C 50.4°F10.2°C 99% 2.8 mph E4.5 kmh E 9.0 mph14.5 kmh 29.96 in1014.6 mb 0.01 in0.3 mm 0.00 in0.0 mm 1.25 in31.8 mm
11:20 PM 50.7°F10.4°C 50.4°F10.2°C 99% 1.8 mph E2.9 kmh E 7.0 mph11.3 kmh 29.95 in1014.2 mb 0.02 in0.5 mm 0.12 in3.0 mm 1.25 in31.8 mm
11:25 PM 50.7°F10.4°C 50.4°F10.2°C 99% 1.3 mph ENE2.1 kmh ENE 9.0 mph14.5 kmh 29.93 in1013.5 mb 0.02 in0.5 mm 0.00 in0.0 mm 1.25 in31.8 mm
11:30 PM 50.7°F10.4°C 50.4°F10.2°C 99% 3.9 mph ENE6.3 kmh ENE 9.0 mph14.5 kmh 29.92 in1013.2 mb 0.03 in0.8 mm 0.12 in3.0 mm 1.26 in32.0 mm
11:35 PM 50.8°F10.4°C 50.5°F10.3°C 99% 9.4 mph E15.1 kmh E 14.0 mph22.5 kmh 29.90 in1012.5 mb 0.03 in0.8 mm 0.00 in0.0 mm 1.26 in32.0 mm
11:40 PM 50.9°F10.5°C 50.6°F10.3°C 99% 8.4 mph E13.5 kmh E 16.0 mph25.7 kmh 29.90 in1012.5 mb 0.03 in0.8 mm 0.00 in0.0 mm 1.26 in32.0 mm
11:45 PM 50.9°F10.5°C 50.6°F10.3°C 99% 4.7 mph E7.6 kmh E 16.0 mph25.7 kmh 29.91 in1012.9 mb 0.03 in0.8 mm 0.00 in0.0 mm 1.26 in32.0 mm
11:50 PM 51.1°F10.6°C 50.8°F10.4°C 99% 5.4 mph E8.7 kmh E 16.0 mph25.7 kmh 29.91 in1012.9 mb 0.02 in0.5 mm 0.00 in0.0 mm 1.26 in32.0 mm
11:55 PM 51.1°F10.6°C 50.8°F10.4°C 99% 2.4 mph E3.9 kmh E 16.0 mph25.7 kmh 29.92 in1013.2 mb 0.02 in0.5 mm 0.00 in0.0 mm 1.26 in32.0 mm